sensor_id;sensor_type;location;lat;lon;timestamp;P1;durP1;ratioP1;P2;durP2;ratioP2
72949;SDS011;64868;45.710;9.590;2022-11-30T00:01:57;40.85;;;21.83;;
72949;SDS011;64868;45.710;9.590;2022-11-30T00:04:22;35.78;;;19.73;;
72949;SDS011;64868;45.710;9.590;2022-11-30T00:06:48;36.20;;;19.92;;
72949;SDS011;64868;45.710;9.590;2022-11-30T00:09:13;33.88;;;19.95;;
72949;SDS011;64868;45.710;9.590;2022-11-30T00:11:39;36.63;;;19.55;;
72949;SDS011;64868;45.710;9.590;2022-11-30T00:14:05;34.50;;;19.17;;
72949;SDS011;64868;45.710;9.590;2022-11-30T00:16:30;38.13;;;20.85;;
72949;SDS011;64868;45.710;9.590;2022-11-30T00:18:55;41.58;;;20.75;;
72949;SDS011;64868;45.710;9.590;2022-11-30T00:21:21;40.83;;;21.00;;
72949;SDS011;64868;45.710;9.590;2022-11-30T00:23:47;39.67;;;20.88;;
72949;SDS011;64868;45.710;9.590;2022-11-30T00:26:14;34.60;;;19.08;;
72949;SDS011;64868;45.710;9.590;2022-11-30T00:28:42;34.85;;;18.83;;
72949;SDS011;64868;45.710;9.590;2022-11-30T00:31:10;33.08;;;17.73;;
72949;SDS011;64868;45.710;9.590;2022-11-30T00:33:37;33.85;;;17.77;;
72949;SDS011;64868;45.710;9.590;2022-11-30T00:36:04;35.05;;;17.85;;
72949;SDS011;64868;45.710;9.590;2022-11-30T00:38:31;34.45;;;18.00;;
72949;SDS011;64868;45.710;9.590;2022-11-30T00:40:58;35.35;;;18.60;;
72949;SDS011;64868;45.710;9.590;2022-11-30T00:43:24;34.17;;;18.10;;
72949;SDS011;64868;45.710;9.590;2022-11-30T00:45:50;35.45;;;18.33;;
72949;SDS011;64868;45.710;9.590;2022-11-30T00:48:16;38.20;;;17.58;;
72949;SDS011;64868;45.710;9.590;2022-11-30T00:50:41;34.58;;;17.20;;
72949;SDS011;64868;45.710;9.590;2022-11-30T00:53:06;33.35;;;17.70;;
72949;SDS011;64868;45.710;9.590;2022-11-30T00:55:32;31.30;;;16.70;;
72949;SDS011;64868;45.710;9.590;2022-11-30T00:57:58;32.40;;;16.35;;
72949;SDS011;64868;45.710;9.590;2022-11-30T01:00:24;27.77;;;15.20;;
72949;SDS011;64868;45.710;9.590;2022-11-30T01:02:53;28.95;;;14.30;;
72949;SDS011;64868;45.710;9.590;2022-11-30T01:05:20;29.95;;;16.05;;
72949;SDS011;64868;45.710;9.590;2022-11-30T01:07:45;30.45;;;16.35;;
72949;SDS011;64868;45.710;9.590;2022-11-30T01:10:11;34.75;;;16.55;;
72949;SDS011;64868;45.710;9.590;2022-11-30T01:12:36;32.95;;;16.50;;
72949;SDS011;64868;45.710;9.590;2022-11-30T01:15:01;32.30;;;16.67;;
72949;SDS011;64868;45.710;9.590;2022-11-30T01:17:27;32.45;;;16.50;;
72949;SDS011;64868;45.710;9.590;2022-11-30T01:19:53;33.03;;;17.00;;
72949;SDS011;64868;45.710;9.590;2022-11-30T01:22:18;27.38;;;14.98;;
72949;SDS011;64868;45.710;9.590;2022-11-30T01:24:43;30.63;;;16.67;;
72949;SDS011;64868;45.710;9.590;2022-11-30T01:27:09;32.50;;;16.83;;
72949;SDS011;64868;45.710;9.590;2022-11-30T01:29:35;32.28;;;16.83;;
72949;SDS011;64868;45.710;9.590;2022-11-30T01:32:01;32.50;;;17.23;;
72949;SDS011;64868;45.710;9.590;2022-11-30T01:34:26;31.92;;;16.15;;
72949;SDS011;64868;45.710;9.590;2022-11-30T01:36:51;33.00;;;16.00;;
72949;SDS011;64868;45.710;9.590;2022-11-30T01:39:17;30.55;;;15.90;;
72949;SDS011;64868;45.710;9.590;2022-11-30T01:41:42;31.27;;;16.65;;
72949;SDS011;64868;45.710;9.590;2022-11-30T01:54:28;27.45;;;14.00;;
72949;SDS011;64868;45.710;9.590;2022-11-30T01:57:02;27.67;;;14.70;;
72949;SDS011;64868;45.710;9.590;2022-11-30T01:59:35;31.70;;;15.32;;
72949;SDS011;64868;45.710;9.590;2022-11-30T02:02:01;28.33;;;14.60;;
72949;SDS011;64868;45.710;9.590;2022-11-30T02:04:33;26.17;;;13.90;;
72949;SDS011;64868;45.710;9.590;2022-11-30T02:07:00;30.35;;;15.85;;
72949;SDS011;64868;45.710;9.590;2022-11-30T02:09:28;28.60;;;15.85;;
72949;SDS011;64868;45.710;9.590;2022-11-30T02:11:58;30.27;;;16.02;;
72949;SDS011;64868;45.710;9.590;2022-11-30T02:17:05;26.60;;;14.73;;
72949;SDS011;64868;45.710;9.590;2022-11-30T02:20:06;28.00;;;14.77;;
72949;SDS011;64868;45.710;9.590;2022-11-30T02:22:44;25.70;;;14.20;;
72949;SDS011;64868;45.710;9.590;2022-11-30T02:30:55;26.58;;;14.77;;
72949;SDS011;64868;45.710;9.590;2022-11-30T02:33:24;25.40;;;14.40;;
72949;SDS011;64868;45.710;9.590;2022-11-30T02:35:54;26.90;;;14.15;;
72949;SDS011;64868;45.710;9.590;2022-11-30T02:38:22;27.73;;;14.10;;
72949;SDS011;64868;45.710;9.590;2022-11-30T02:40:50;26.50;;;13.75;;
72949;SDS011;64868;45.710;9.590;2022-11-30T02:43:15;26.17;;;13.80;;
72949;SDS011;64868;45.710;9.590;2022-11-30T02:45:47;27.17;;;14.68;;
72949;SDS011;64868;45.710;9.590;2022-11-30T02:48:22;25.23;;;13.48;;
72949;SDS011;64868;45.710;9.590;2022-11-30T02:51:01;26.15;;;13.85;;
72949;SDS011;64868;45.710;9.590;2022-11-30T02:53:30;24.17;;;12.93;;
72949;SDS011;64868;45.710;9.590;2022-11-30T02:55:55;26.80;;;13.30;;
72949;SDS011;64868;45.710;9.590;2022-11-30T02:58:21;22.70;;;11.93;;
72949;SDS011;64868;45.710;9.590;2022-11-30T03:00:46;24.10;;;12.50;;
72949;SDS011;64868;45.710;9.590;2022-11-30T03:03:12;23.42;;;11.85;;
72949;SDS011;64868;45.710;9.590;2022-11-30T03:05:37;24.17;;;11.50;;
72949;SDS011;64868;45.710;9.590;2022-11-30T03:08:03;18.77;;;10.15;;
72949;SDS011;64868;45.710;9.590;2022-11-30T03:10:29;20.85;;;10.80;;
72949;SDS011;64868;45.710;9.590;2022-11-30T03:12:57;21.83;;;11.20;;
72949;SDS011;64868;45.710;9.590;2022-11-30T03:15:26;19.05;;;10.00;;
72949;SDS011;64868;45.710;9.590;2022-11-30T03:17:51;21.15;;;10.50;;
72949;SDS011;64868;45.710;9.590;2022-11-30T03:20:17;21.90;;;10.70;;
72949;SDS011;64868;45.710;9.590;2022-11-30T03:22:43;22.10;;;10.95;;
72949;SDS011;64868;45.710;9.590;2022-11-30T03:25:08;18.30;;;9.98;;
72949;SDS011;64868;45.710;9.590;2022-11-30T03:27:33;20.50;;;10.18;;
72949;SDS011;64868;45.710;9.590;2022-11-30T03:29:59;20.67;;;10.55;;
72949;SDS011;64868;45.710;9.590;2022-11-30T03:32:24;22.15;;;11.80;;
72949;SDS011;64868;45.710;9.590;2022-11-30T03:34:50;22.55;;;10.35;;
72949;SDS011;64868;45.710;9.590;2022-11-30T03:37:18;20.02;;;10.50;;
72949;SDS011;64868;45.710;9.590;2022-11-30T03:39:43;19.85;;;10.13;;
72949;SDS011;64868;45.710;9.590;2022-11-30T03:42:09;19.65;;;10.27;;
72949;SDS011;64868;45.710;9.590;2022-11-30T03:44:35;19.02;;;10.50;;
72949;SDS011;64868;45.710;9.590;2022-11-30T03:47:00;16.13;;;8.85;;
72949;SDS011;64868;45.710;9.590;2022-11-30T03:49:26;20.10;;;10.27;;
72949;SDS011;64868;45.710;9.590;2022-11-30T03:51:54;17.80;;;9.80;;
72949;SDS011;64868;45.710;9.590;2022-11-30T03:54:19;21.52;;;11.18;;
72949;SDS011;64868;45.710;9.590;2022-11-30T03:56:47;19.65;;;9.93;;
72949;SDS011;64868;45.710;9.590;2022-11-30T03:59:13;23.92;;;12.32;;
72949;SDS011;64868;45.710;9.590;2022-11-30T04:01:38;22.08;;;11.63;;
72949;SDS011;64868;45.710;9.590;2022-11-30T04:04:05;21.67;;;10.73;;
72949;SDS011;64868;45.710;9.590;2022-11-30T04:06:31;22.02;;;11.35;;
72949;SDS011;64868;45.710;9.590;2022-11-30T04:08:57;22.17;;;10.70;;
72949;SDS011;64868;45.710;9.590;2022-11-30T04:11:23;21.50;;;11.70;;
72949;SDS011;64868;45.710;9.590;2022-11-30T04:13:49;23.35;;;12.38;;
72949;SDS011;64868;45.710;9.590;2022-11-30T04:16:14;22.13;;;11.40;;
72949;SDS011;64868;45.710;9.590;2022-11-30T04:18:40;19.90;;;10.27;;
72949;SDS011;64868;45.710;9.590;2022-11-30T04:21:06;21.80;;;11.05;;
72949;SDS011;64868;45.710;9.590;2022-11-30T04:23:35;20.20;;;11.10;;
72949;SDS011;64868;45.710;9.590;2022-11-30T04:26:03;22.77;;;11.77;;
72949;SDS011;64868;45.710;9.590;2022-11-30T04:28:29;20.60;;;11.30;;
72949;SDS011;64868;45.710;9.590;2022-11-30T04:30:55;24.00;;;11.93;;
72949;SDS011;64868;45.710;9.590;2022-11-30T04:33:21;21.38;;;11.20;;
72949;SDS011;64868;45.710;9.590;2022-11-30T04:35:47;20.55;;;10.90;;
72949;SDS011;64868;45.710;9.590;2022-11-30T04:38:17;20.42;;;11.20;;
72949;SDS011;64868;45.710;9.590;2022-11-30T04:40:42;20.77;;;11.30;;
72949;SDS011;64868;45.710;9.590;2022-11-30T04:43:08;22.55;;;10.82;;
72949;SDS011;64868;45.710;9.590;2022-11-30T04:45:34;21.10;;;10.50;;
72949;SDS011;64868;45.710;9.590;2022-11-30T04:48:00;21.20;;;10.50;;
72949;SDS011;64868;45.710;9.590;2022-11-30T04:50:26;20.48;;;11.20;;
72949;SDS011;64868;45.710;9.590;2022-11-30T04:52:52;21.27;;;11.18;;
72949;SDS011;64868;45.710;9.590;2022-11-30T04:55:17;21.85;;;10.82;;
72949;SDS011;64868;45.710;9.590;2022-11-30T04:57:44;23.40;;;11.27;;
72949;SDS011;64868;45.710;9.590;2022-11-30T05:00:12;19.17;;;10.32;;
72949;SDS011;64868;45.710;9.590;2022-11-30T05:02:38;20.30;;;10.90;;
72949;SDS011;64868;45.710;9.590;2022-11-30T05:05:04;20.75;;;11.45;;
72949;SDS011;64868;45.710;9.590;2022-11-30T05:07:30;20.45;;;10.98;;
72949;SDS011;64868;45.710;9.590;2022-11-30T05:09:55;23.98;;;11.77;;
72949;SDS011;64868;45.710;9.590;2022-11-30T05:12:21;22.92;;;11.15;;
72949;SDS011;64868;45.710;9.590;2022-11-30T05:14:46;21.73;;;10.93;;
72949;SDS011;64868;45.710;9.590;2022-11-30T05:17:11;21.88;;;11.00;;
72949;SDS011;64868;45.710;9.590;2022-11-30T05:19:37;19.70;;;10.48;;
72949;SDS011;64868;45.710;9.590;2022-11-30T05:22:02;18.27;;;9.70;;
72949;SDS011;64868;45.710;9.590;2022-11-30T05:24:28;19.25;;;10.35;;
72949;SDS011;64868;45.710;9.590;2022-11-30T05:26:53;20.58;;;11.05;;
72949;SDS011;64868;45.710;9.590;2022-11-30T05:29:18;19.92;;;10.15;;
72949;SDS011;64868;45.710;9.590;2022-11-30T05:31:44;22.80;;;10.52;;
72949;SDS011;64868;45.710;9.590;2022-11-30T05:34:09;19.73;;;9.73;;
72949;SDS011;64868;45.710;9.590;2022-11-30T05:36:35;18.05;;;9.98;;
72949;SDS011;64868;45.710;9.590;2022-11-30T05:39:00;20.83;;;9.88;;
72949;SDS011;64868;45.710;9.590;2022-11-30T05:41:26;20.63;;;10.77;;
72949;SDS011;64868;45.710;9.590;2022-11-30T05:43:51;19.00;;;9.82;;
72949;SDS011;64868;45.710;9.590;2022-11-30T05:46:17;19.25;;;10.50;;
72949;SDS011;64868;45.710;9.590;2022-11-30T05:48:42;19.30;;;10.05;;
72949;SDS011;64868;45.710;9.590;2022-11-30T05:51:09;18.48;;;10.20;;
72949;SDS011;64868;45.710;9.590;2022-11-30T05:53:36;19.58;;;10.48;;
72949;SDS011;64868;45.710;9.590;2022-11-30T05:56:09;19.92;;;10.50;;
72949;SDS011;64868;45.710;9.590;2022-11-30T05:58:36;21.58;;;11.07;;
72949;SDS011;64868;45.710;9.590;2022-11-30T06:01:02;19.48;;;10.63;;
72949;SDS011;64868;45.710;9.590;2022-11-30T06:03:28;19.45;;;10.98;;
72949;SDS011;64868;45.710;9.590;2022-11-30T06:05:54;21.08;;;10.98;;
72949;SDS011;64868;45.710;9.590;2022-11-30T06:08:20;19.63;;;11.13;;
72949;SDS011;64868;45.710;9.590;2022-11-30T06:10:46;21.63;;;10.55;;
72949;SDS011;64868;45.710;9.590;2022-11-30T06:13:11;23.45;;;11.00;;
72949;SDS011;64868;45.710;9.590;2022-11-30T06:15:38;22.75;;;11.00;;
72949;SDS011;64868;45.710;9.590;2022-11-30T06:18:05;22.17;;;10.98;;
72949;SDS011;64868;45.710;9.590;2022-11-30T06:20:31;26.02;;;11.90;;
72949;SDS011;64868;45.710;9.590;2022-11-30T06:22:57;25.42;;;11.48;;
72949;SDS011;64868;45.710;9.590;2022-11-30T06:25:23;22.65;;;11.90;;
72949;SDS011;64868;45.710;9.590;2022-11-30T06:27:50;22.90;;;11.55;;
72949;SDS011;64868;45.710;9.590;2022-11-30T06:30:16;24.55;;;12.35;;
72949;SDS011;64868;45.710;9.590;2022-11-30T06:32:44;20.27;;;10.38;;
72949;SDS011;64868;45.710;9.590;2022-11-30T06:35:11;25.10;;;12.00;;
72949;SDS011;64868;45.710;9.590;2022-11-30T06:37:37;21.83;;;11.75;;
72949;SDS011;64868;45.710;9.590;2022-11-30T06:40:02;22.75;;;12.82;;
72949;SDS011;64868;45.710;9.590;2022-11-30T06:42:29;23.02;;;12.02;;
72949;SDS011;64868;45.710;9.590;2022-11-30T06:44:55;25.55;;;12.15;;
72949;SDS011;64868;45.710;9.590;2022-11-30T06:47:21;23.38;;;11.90;;
72949;SDS011;64868;45.710;9.590;2022-11-30T06:49:47;25.75;;;13.18;;
72949;SDS011;64868;45.710;9.590;2022-11-30T06:52:12;27.52;;;13.32;;
72949;SDS011;64868;45.710;9.590;2022-11-30T06:54:38;21.48;;;11.73;;
72949;SDS011;64868;45.710;9.590;2022-11-30T06:57:03;22.02;;;12.45;;
72949;SDS011;64868;45.710;9.590;2022-11-30T06:59:29;22.88;;;12.75;;
72949;SDS011;64868;45.710;9.590;2022-11-30T07:01:54;24.25;;;12.82;;
72949;SDS011;64868;45.710;9.590;2022-11-30T07:04:20;24.48;;;13.25;;
72949;SDS011;64868;45.710;9.590;2022-11-30T07:06:45;24.80;;;12.88;;
72949;SDS011;64868;45.710;9.590;2022-11-30T07:09:11;24.20;;;12.40;;
72949;SDS011;64868;45.710;9.590;2022-11-30T07:11:37;24.55;;;12.27;;
72949;SDS011;64868;45.710;9.590;2022-11-30T07:14:03;24.02;;;12.70;;
72949;SDS011;64868;45.710;9.590;2022-11-30T07:16:28;22.13;;;11.48;;
72949;SDS011;64868;45.710;9.590;2022-11-30T07:18:54;24.77;;;13.18;;
72949;SDS011;64868;45.710;9.590;2022-11-30T07:21:19;21.85;;;11.88;;
72949;SDS011;64868;45.710;9.590;2022-11-30T07:23:44;22.70;;;12.65;;
72949;SDS011;64868;45.710;9.590;2022-11-30T07:26:29;24.92;;;12.68;;
72949;SDS011;64868;45.710;9.590;2022-11-30T07:28:54;23.98;;;11.68;;
72949;SDS011;64868;45.710;9.590;2022-11-30T07:33:48;26.40;;;13.35;;
72949;SDS011;64868;45.710;9.590;2022-11-30T07:36:14;24.42;;;12.13;;
72949;SDS011;64868;45.710;9.590;2022-11-30T07:38:41;24.05;;;12.75;;
72949;SDS011;64868;45.710;9.590;2022-11-30T07:41:06;23.55;;;13.30;;
72949;SDS011;64868;45.710;9.590;2022-11-30T07:43:32;21.67;;;12.35;;
72949;SDS011;64868;45.710;9.590;2022-11-30T07:45:58;24.30;;;13.02;;
72949;SDS011;64868;45.710;9.590;2022-11-30T07:48:25;24.85;;;12.35;;
72949;SDS011;64868;45.710;9.590;2022-11-30T07:50:51;26.55;;;11.73;;
72949;SDS011;64868;45.710;9.590;2022-11-30T07:53:16;22.65;;;11.82;;
72949;SDS011;64868;45.710;9.590;2022-11-30T07:55:42;26.70;;;11.68;;
72949;SDS011;64868;45.710;9.590;2022-11-30T07:58:08;26.60;;;12.55;;
72949;SDS011;64868;45.710;9.590;2022-11-30T08:00:35;26.55;;;12.80;;
72949;SDS011;64868;45.710;9.590;2022-11-30T08:03:02;27.95;;;13.98;;
72949;SDS011;64868;45.710;9.590;2022-11-30T08:05:28;22.83;;;12.10;;
72949;SDS011;64868;45.710;9.590;2022-11-30T08:07:54;23.10;;;11.82;;
72949;SDS011;64868;45.710;9.590;2022-11-30T08:10:20;23.50;;;12.10;;
72949;SDS011;64868;45.710;9.590;2022-11-30T08:12:46;25.30;;;12.98;;
72949;SDS011;64868;45.710;9.590;2022-11-30T08:15:12;23.98;;;12.32;;
72949;SDS011;64868;45.710;9.590;2022-11-30T08:17:39;22.17;;;12.15;;
72949;SDS011;64868;45.710;9.590;2022-11-30T08:20:05;26.63;;;12.65;;
72949;SDS011;64868;45.710;9.590;2022-11-30T08:22:32;23.60;;;12.40;;
72949;SDS011;64868;45.710;9.590;2022-11-30T08:24:58;26.58;;;13.75;;
72949;SDS011;64868;45.710;9.590;2022-11-30T08:27:24;27.88;;;14.98;;
72949;SDS011;64868;45.710;9.590;2022-11-30T08:29:52;26.60;;;13.80;;
72949;SDS011;64868;45.710;9.590;2022-11-30T08:32:18;28.77;;;14.15;;
72949;SDS011;64868;45.710;9.590;2022-11-30T08:34:43;27.23;;;14.00;;
72949;SDS011;64868;45.710;9.590;2022-11-30T08:37:09;26.63;;;14.20;;
72949;SDS011;64868;45.710;9.590;2022-11-30T08:39:34;33.25;;;14.73;;
72949;SDS011;64868;45.710;9.590;2022-11-30T08:42:00;26.63;;;13.68;;
72949;SDS011;64868;45.710;9.590;2022-11-30T08:44:27;28.83;;;14.68;;
72949;SDS011;64868;45.710;9.590;2022-11-30T08:46:53;26.65;;;13.90;;
72949;SDS011;64868;45.710;9.590;2022-11-30T08:49:19;28.40;;;14.38;;
72949;SDS011;64868;45.710;9.590;2022-11-30T08:51:45;30.48;;;15.65;;
72949;SDS011;64868;45.710;9.590;2022-11-30T08:54:11;35.45;;;16.15;;
72949;SDS011;64868;45.710;9.590;2022-11-30T08:56:37;29.73;;;15.07;;
72949;SDS011;64868;45.710;9.590;2022-11-30T08:59:02;29.13;;;15.65;;
72949;SDS011;64868;45.710;9.590;2022-11-30T09:01:28;30.65;;;14.93;;
72949;SDS011;64868;45.710;9.590;2022-11-30T09:03:54;29.98;;;14.52;;
72949;SDS011;64868;45.710;9.590;2022-11-30T09:06:23;30.27;;;15.93;;
72949;SDS011;64868;45.710;9.590;2022-11-30T09:13:53;29.33;;;14.27;;
72949;SDS011;64868;45.710;9.590;2022-11-30T09:16:20;29.98;;;14.05;;
72949;SDS011;64868;45.710;9.590;2022-11-30T09:18:46;29.95;;;14.40;;
72949;SDS011;64868;45.710;9.590;2022-11-30T09:21:13;28.88;;;14.52;;
72949;SDS011;64868;45.710;9.590;2022-11-30T09:23:41;28.85;;;14.95;;
72949;SDS011;64868;45.710;9.590;2022-11-30T09:26:08;31.15;;;14.85;;
72949;SDS011;64868;45.710;9.590;2022-11-30T09:28:35;30.75;;;14.63;;
72949;SDS011;64868;45.710;9.590;2022-11-30T09:31:02;30.15;;;14.38;;
72949;SDS011;64868;45.710;9.590;2022-11-30T09:33:39;31.50;;;15.00;;
72949;SDS011;64868;45.710;9.590;2022-11-30T09:36:06;31.08;;;14.43;;
72949;SDS011;64868;45.710;9.590;2022-11-30T09:38:33;31.35;;;15.00;;
72949;SDS011;64868;45.710;9.590;2022-11-30T09:41:00;30.33;;;15.20;;
72949;SDS011;64868;45.710;9.590;2022-11-30T09:43:31;33.63;;;15.32;;
72949;SDS011;64868;45.710;9.590;2022-11-30T09:46:08;34.65;;;15.80;;
72949;SDS011;64868;45.710;9.590;2022-11-30T09:48:47;29.90;;;14.63;;
72949;SDS011;64868;45.710;9.590;2022-11-30T09:51:37;28.55;;;15.05;;
72949;SDS011;64868;45.710;9.590;2022-11-30T09:54:11;31.98;;;15.23;;
72949;SDS011;64868;45.710;9.590;2022-11-30T09:56:39;30.10;;;15.40;;
72949;SDS011;64868;45.710;9.590;2022-11-30T10:01:49;28.60;;;14.23;;
72949;SDS011;64868;45.710;9.590;2022-11-30T10:04:25;30.23;;;14.13;;
72949;SDS011;64868;45.710;9.590;2022-11-30T10:07:01;28.90;;;14.65;;
72949;SDS011;64868;45.710;9.590;2022-11-30T10:12:21;31.63;;;14.48;;
72949;SDS011;64868;45.710;9.590;2022-11-30T10:17:43;30.20;;;13.98;;
72949;SDS011;64868;45.710;9.590;2022-11-30T10:25:58;30.55;;;13.70;;
72949;SDS011;64868;45.710;9.590;2022-11-30T10:28:50;30.52;;;13.75;;
72949;SDS011;64868;45.710;9.590;2022-11-30T10:31:34;30.10;;;13.77;;
72949;SDS011;64868;45.710;9.590;2022-11-30T10:37:08;23.50;;;11.80;;
72949;SDS011;64868;45.710;9.590;2022-11-30T10:45:04;27.23;;;12.45;;
72949;SDS011;64868;45.710;9.590;2022-11-30T10:47:34;26.75;;;12.30;;
72949;SDS011;64868;45.710;9.590;2022-11-30T10:50:05;23.63;;;11.07;;
72949;SDS011;64868;45.710;9.590;2022-11-30T10:52:40;26.92;;;12.05;;
72949;SDS011;64868;45.710;9.590;2022-11-30T10:55:14;25.88;;;12.48;;
72949;SDS011;64868;45.710;9.590;2022-11-30T10:57:54;25.80;;;12.27;;
72949;SDS011;64868;45.710;9.590;2022-11-30T11:00:24;24.40;;;11.90;;
72949;SDS011;64868;45.710;9.590;2022-11-30T11:02:53;24.98;;;11.88;;
72949;SDS011;64868;45.710;9.590;2022-11-30T11:13:09;25.60;;;12.77;;
72949;SDS011;64868;45.710;9.590;2022-11-30T11:15:40;29.48;;;14.18;;
72949;SDS011;64868;45.710;9.590;2022-11-30T11:18:24;28.48;;;13.15;;
72949;SDS011;64868;45.710;9.590;2022-11-30T11:23:42;25.48;;;12.30;;
72949;SDS011;64868;45.710;9.590;2022-11-30T11:26:19;26.17;;;13.30;;
72949;SDS011;64868;45.710;9.590;2022-11-30T11:28:48;24.50;;;13.07;;
72949;SDS011;64868;45.710;9.590;2022-11-30T11:34:00;22.85;;;11.50;;
72949;SDS011;64868;45.710;9.590;2022-11-30T11:36:29;25.40;;;11.52;;
72949;SDS011;64868;45.710;9.590;2022-11-30T11:39:01;23.90;;;12.35;;
72949;SDS011;64868;45.710;9.590;2022-11-30T11:41:34;20.50;;;11.05;;
72949;SDS011;64868;45.710;9.590;2022-11-30T11:46:37;24.58;;;12.13;;
72949;SDS011;64868;45.710;9.590;2022-11-30T11:52:04;20.17;;;10.43;;
72949;SDS011;64868;45.710;9.590;2022-11-30T11:57:18;21.95;;;11.27;;
72949;SDS011;64868;45.710;9.590;2022-11-30T12:00:06;22.75;;;11.13;;
72949;SDS011;64868;45.710;9.590;2022-11-30T12:11:18;24.58;;;11.43;;
72949;SDS011;64868;45.710;9.590;2022-11-30T12:14:08;24.73;;;12.00;;
72949;SDS011;64868;45.710;9.590;2022-11-30T12:35:59;32.03;;;12.57;;
72949;SDS011;64868;45.710;9.590;2022-11-30T12:38:44;23.65;;;11.98;;
72949;SDS011;64868;45.710;9.590;2022-11-30T12:44:21;24.73;;;13.02;;
72949;SDS011;64868;45.710;9.590;2022-11-30T13:01:34;24.48;;;13.57;;
72949;SDS011;64868;45.710;9.590;2022-11-30T13:04:16;22.75;;;11.57;;
72949;SDS011;64868;45.710;9.590;2022-11-30T13:07:01;23.27;;;11.75;;
72949;SDS011;64868;45.710;9.590;2022-11-30T13:09:49;27.45;;;12.95;;
72949;SDS011;64868;45.710;9.590;2022-11-30T13:12:23;27.20;;;13.82;;
72949;SDS011;64868;45.710;9.590;2022-11-30T13:14:59;26.13;;;13.63;;
72949;SDS011;64868;45.710;9.590;2022-11-30T13:17:29;25.65;;;12.57;;
72949;SDS011;64868;45.710;9.590;2022-11-30T13:22:54;23.08;;;12.80;;
72949;SDS011;64868;45.710;9.590;2022-11-30T13:30:58;26.42;;;12.82;;
72949;SDS011;64868;45.710;9.590;2022-11-30T13:36:20;29.10;;;13.45;;
72949;SDS011;64868;45.710;9.590;2022-11-30T13:41:48;26.35;;;12.32;;
72949;SDS011;64868;45.710;9.590;2022-11-30T13:44:24;28.63;;;12.68;;
72949;SDS011;64868;45.710;9.590;2022-11-30T13:46:54;25.02;;;12.82;;
72949;SDS011;64868;45.710;9.590;2022-11-30T13:49:22;26.65;;;12.52;;
72949;SDS011;64868;45.710;9.590;2022-11-30T13:51:53;27.90;;;14.38;;
72949;SDS011;64868;45.710;9.590;2022-11-30T13:57:14;30.20;;;14.48;;
72949;SDS011;64868;45.710;9.590;2022-11-30T13:59:49;30.27;;;14.50;;
72949;SDS011;64868;45.710;9.590;2022-11-30T14:07:43;26.75;;;13.60;;
72949;SDS011;64868;45.710;9.590;2022-11-30T14:10:31;27.45;;;14.02;;
72949;SDS011;64868;45.710;9.590;2022-11-30T14:18:03;28.77;;;14.32;;
72949;SDS011;64868;45.710;9.590;2022-11-30T14:23:19;29.58;;;14.32;;
72949;SDS011;64868;45.710;9.590;2022-11-30T14:26:03;31.20;;;14.85;;
72949;SDS011;64868;45.710;9.590;2022-11-30T14:28:43;30.70;;;14.38;;
72949;SDS011;64868;45.710;9.590;2022-11-30T14:31:18;27.45;;;14.30;;
72949;SDS011;64868;45.710;9.590;2022-11-30T14:33:48;30.60;;;14.07;;
72949;SDS011;64868;45.710;9.590;2022-11-30T14:36:18;30.38;;;14.82;;
72949;SDS011;64868;45.710;9.590;2022-11-30T14:38:45;32.75;;;15.77;;
72949;SDS011;64868;45.710;9.590;2022-11-30T14:41:21;27.08;;;14.18;;
72949;SDS011;64868;45.710;9.590;2022-11-30T14:46:34;28.20;;;14.10;;
72949;SDS011;64868;45.710;9.590;2022-11-30T14:51:57;33.42;;;16.73;;
72949;SDS011;64868;45.710;9.590;2022-11-30T14:54:36;30.98;;;15.73;;
72949;SDS011;64868;45.710;9.590;2022-11-30T14:59:55;31.70;;;15.07;;
72949;SDS011;64868;45.710;9.590;2022-11-30T15:04:48;31.23;;;15.65;;
72949;SDS011;64868;45.710;9.590;2022-11-30T15:07:16;32.97;;;16.48;;
72949;SDS011;64868;45.710;9.590;2022-11-30T15:09:46;32.40;;;16.10;;
72949;SDS011;64868;45.710;9.590;2022-11-30T15:12:18;34.70;;;16.52;;
72949;SDS011;64868;45.710;9.590;2022-11-30T15:17:51;34.80;;;15.82;;
72949;SDS011;64868;45.710;9.590;2022-11-30T15:20:24;29.35;;;14.88;;
72949;SDS011;64868;45.710;9.590;2022-11-30T15:22:55;34.80;;;15.98;;
72949;SDS011;64868;45.710;9.590;2022-11-30T15:25:23;31.63;;;15.32;;
72949;SDS011;64868;45.710;9.590;2022-11-30T15:27:54;29.70;;;15.32;;
72949;SDS011;64868;45.710;9.590;2022-11-30T15:30:22;30.40;;;15.88;;
72949;SDS011;64868;45.710;9.590;2022-11-30T15:32:48;30.20;;;15.65;;
72949;SDS011;64868;45.710;9.590;2022-11-30T15:35:18;30.90;;;16.85;;
72949;SDS011;64868;45.710;9.590;2022-11-30T15:37:47;31.35;;;15.98;;
72949;SDS011;64868;45.710;9.590;2022-11-30T15:40:14;30.25;;;16.48;;
72949;SDS011;64868;45.710;9.590;2022-11-30T15:42:45;33.22;;;16.55;;
72949;SDS011;64868;45.710;9.590;2022-11-30T15:47:44;36.53;;;18.10;;
72949;SDS011;64868;45.710;9.590;2022-11-30T15:52:50;38.55;;;17.50;;
72949;SDS011;64868;45.710;9.590;2022-11-30T16:01:04;35.70;;;18.45;;
72949;SDS011;64868;45.710;9.590;2022-11-30T16:03:58;33.42;;;18.48;;
72949;SDS011;64868;45.710;9.590;2022-11-30T16:06:25;36.20;;;18.00;;
72949;SDS011;64868;45.710;9.590;2022-11-30T16:08:54;38.75;;;19.38;;
72949;SDS011;64868;45.710;9.590;2022-11-30T16:11:21;34.25;;;17.77;;
72949;SDS011;64868;45.710;9.590;2022-11-30T16:13:47;40.35;;;18.95;;
72949;SDS011;64868;45.710;9.590;2022-11-30T16:16:18;36.88;;;17.35;;
72949;SDS011;64868;45.710;9.590;2022-11-30T16:18:52;34.83;;;17.27;;
72949;SDS011;64868;45.710;9.590;2022-11-30T16:21:18;33.53;;;16.88;;
72949;SDS011;64868;45.710;9.590;2022-11-30T16:23:44;33.35;;;16.42;;
72949;SDS011;64868;45.710;9.590;2022-11-30T16:26:11;34.78;;;17.65;;
72949;SDS011;64868;45.710;9.590;2022-11-30T16:28:38;33.17;;;16.38;;
72949;SDS011;64868;45.710;9.590;2022-11-30T16:31:04;36.47;;;18.30;;
72949;SDS011;64868;45.710;9.590;2022-11-30T16:33:30;38.03;;;19.65;;
72949;SDS011;64868;45.710;9.590;2022-11-30T16:35:57;37.05;;;19.23;;
72949;SDS011;64868;45.710;9.590;2022-11-30T16:38:26;34.80;;;18.88;;
72949;SDS011;64868;45.710;9.590;2022-11-30T16:40:52;35.88;;;18.83;;
72949;SDS011;64868;45.710;9.590;2022-11-30T16:43:20;39.00;;;19.73;;
72949;SDS011;64868;45.710;9.590;2022-11-30T16:45:46;42.97;;;20.63;;
72949;SDS011;64868;45.710;9.590;2022-11-30T16:48:14;38.47;;;19.63;;
72949;SDS011;64868;45.710;9.590;2022-11-30T16:50:41;37.08;;;18.83;;
72949;SDS011;64868;45.710;9.590;2022-11-30T16:53:11;34.75;;;17.95;;
72949;SDS011;64868;45.710;9.590;2022-11-30T16:55:41;38.97;;;20.45;;
72949;SDS011;64868;45.710;9.590;2022-11-30T16:58:07;39.85;;;19.67;;
72949;SDS011;64868;45.710;9.590;2022-11-30T17:00:32;41.90;;;19.30;;
72949;SDS011;64868;45.710;9.590;2022-11-30T17:03:16;40.28;;;20.33;;
72949;SDS011;64868;45.710;9.590;2022-11-30T17:05:46;42.72;;;20.40;;
72949;SDS011;64868;45.710;9.590;2022-11-30T17:08:12;38.58;;;19.90;;
72949;SDS011;64868;45.710;9.590;2022-11-30T17:10:37;36.67;;;18.92;;
72949;SDS011;64868;45.710;9.590;2022-11-30T17:13:03;42.17;;;18.00;;
72949;SDS011;64868;45.710;9.590;2022-11-30T17:15:29;40.47;;;19.30;;
72949;SDS011;64868;45.710;9.590;2022-11-30T17:17:55;36.88;;;19.08;;
72949;SDS011;64868;45.710;9.590;2022-11-30T17:20:23;38.25;;;19.38;;